Time;durP1;ratioP1;P1;durP2;ratioP2;P2;SDS_P1;SDS_P2;PMS_P1;PMS_P2;Temp;Humidity;BMP_temperature;BMP_pressure;BME280_temperature;BME280_humidity;BME280_pressure;Samples;Min_cycle;Max_cycle;Signal;HPM_P1;HPM_P2
2023/03/29 00:01:55;;;;;;;1.57;1.30;;;6.70;98.20;;;;;;4997077;28;21461;-74
2023/03/29 00:04:22;;;;;;;1.57;1.30;;;6.70;98.20;;;;;;5005262;28;20465;-75
2023/03/29 00:06:49;;;;;;;1.60;1.30;;;6.70;98.20;;;;;;5000053;28;20480;-74
2023/03/29 00:09:17;;;;;;;1.60;1.40;;;6.70;98.20;;;;;;5007774;28;20475;-74
2023/03/29 00:11:44;;;;;;;1.53;1.20;;;6.70;98.20;;;;;;4991864;28;20480;-74
2023/03/29 00:14:12;;;;;;;1.53;1.30;;;6.60;98.20;;;;;;5005691;28;20463;-74
2023/03/29 00:16:39;;;;;;;1.50;1.20;;;6.60;98.20;;;;;;4993648;28;20492;-73
2023/03/29 00:19:06;;;;;;;1.97;1.87;;;6.60;98.20;;;;;;5007533;28;20548;-74
2023/03/29 00:21:33;;;;;;;1.53;1.30;;;6.60;98.20;;;;;;4992623;28;20507;-74
2023/03/29 00:24:00;;;;;;;1.50;1.20;;;6.60;98.20;;;;;;5006796;28;20453;-74
2023/03/29 00:26:27;;;;;;;1.57;1.30;;;6.70;98.20;;;;;;4993827;28;20484;-74
2023/03/29 00:28:54;;;;;;;1.50;1.30;;;6.70;98.20;;;;;;5008236;28;20492;-74
2023/03/29 00:31:22;;;;;;;1.50;1.30;;;6.60;98.20;;;;;;4994217;28;20546;-74
2023/03/29 00:33:49;;;;;;;1.50;1.20;;;6.60;98.20;;;;;;5007847;28;20516;-74
2023/03/29 00:36:16;;;;;;;1.60;1.30;;;6.60;98.20;;;;;;4993762;28;20487;-74
2023/03/29 00:38:44;;;;;;;1.60;1.40;;;6.60;98.20;;;;;;5013812;28;20996;-75
2023/03/29 00:41:11;;;;;;;1.57;1.30;;;6.60;98.20;;;;;;4989486;28;20475;-74
2023/03/29 00:43:57;;;;;;;1.57;1.30;;;6.60;98.20;;;;;;5008729;28;20468;-75
2023/03/29 00:46:27;;;;;;;1.70;1.60;;;6.60;98.20;;;;;;4990334;28;20488;-74
2023/03/29 00:48:57;;;;;;;1.50;1.30;;;6.60;98.20;;;;;;5006559;28;20575;-75
2023/03/29 00:51:27;;;;;;;1.60;1.40;;;6.60;98.20;;;;;;4990395;28;20488;-75
2023/03/29 00:53:58;;;;;;;1.57;1.33;;;6.60;98.20;;;;;;5003539;28;20461;-74
2023/03/29 00:56:30;;;;;;;1.57;1.30;;;6.60;98.20;;;;;;4997222;28;20520;-75
2023/03/29 00:59:00;;;;;;;1.60;1.30;;;6.60;98.20;;;;;;5008083;28;20472;-74
2023/03/29 01:01:36;;;;;;;1.57;1.30;;;6.60;98.20;;;;;;4995809;28;20512;-75
2023/03/29 01:04:17;;;;;;;1.50;1.30;;;6.60;98.20;;;;;;5005786;28;20460;-75
2023/03/29 01:06:50;;;;;;;1.60;1.30;;;6.60;98.20;;;;;;5008601;28;20483;-75
2023/03/29 01:09:19;;;;;;;1.60;1.40;;;6.70;98.20;;;;;;5013478;28;21497;-75
2023/03/29 01:11:51;;;;;;;1.50;1.20;;;6.70;98.20;;;;;;4993875;28;20487;-75
2023/03/29 01:14:22;;;;;;;1.50;1.30;;;6.70;98.20;;;;;;5007611;28;20483;-76
2023/03/29 01:16:50;;;;;;;1.50;1.20;;;6.70;98.20;;;;;;4999165;28;20486;-75
2023/03/29 01:19:21;;;;;;;1.60;1.40;;;6.70;98.20;;;;;;5006697;28;20452;-75
2023/03/29 01:21:52;;;;;;;1.57;1.30;;;6.70;98.20;;;;;;4993831;28;20551;-75
2023/03/29 01:24:45;;;;;;;1.53;1.30;;;6.70;98.20;;;;;;5003560;28;20460;-75
2023/03/29 01:27:16;;;;;;;1.50;1.23;;;6.80;98.20;;;;;;4999512;28;20483;-74
2023/03/29 01:29:49;;;;;;;1.57;1.37;;;6.80;98.20;;;;;;5010066;28;20464;-75
2023/03/29 01:32:21;;;;;;;1.57;1.20;;;6.80;98.20;;;;;;4992286;28;20484;-75
2023/03/29 01:34:51;;;;;;;1.50;1.30;;;6.80;98.20;;;;;;5006536;28;20460;-75
2023/03/29 01:37:23;;;;;;;1.60;1.40;;;6.80;98.20;;;;;;5007631;28;20490;-75
2023/03/29 01:39:51;;;;;;;1.53;1.30;;;6.80;98.20;;;;;;5016583;28;20455;-75
2023/03/29 01:42:31;;;;;;;1.53;1.20;;;6.80;98.20;;;;;;4988680;28;20482;-75
2023/03/29 01:45:09;;;;;;;1.53;1.30;;;6.80;98.20;;;;;;5011603;28;20455;-75
2023/03/29 01:47:44;;;;;;;1.50;1.30;;;6.80;98.20;;;;;;5004266;28;20491;-75
2023/03/29 01:50:33;;;;;;;1.57;1.20;;;6.90;98.20;;;;;;5015203;28;20529;-74
2023/03/29 01:53:07;;;;;;;1.60;1.37;;;6.90;98.20;;;;;;4995832;28;20484;-75
2023/03/29 01:55:39;;;;;;;1.53;1.30;;;6.90;98.20;;;;;;5010328;28;20466;-74
2023/03/29 01:58:08;;;;;;;1.50;1.20;;;6.80;98.20;;;;;;4979566;28;20477;-75
2023/03/29 02:00:38;;;;;;;1.50;1.20;;;6.90;98.20;;;;;;5009184;28;20460;-75
2023/03/29 02:03:08;;;;;;;1.53;1.20;;;6.90;98.20;;;;;;4977213;28;20898;-75
2023/03/29 02:05:37;;;;;;;1.50;1.30;;;6.90;98.20;;;;;;5011451;28;20466;-75
2023/03/29 02:08:07;;;;;;;1.50;1.20;;;6.90;98.20;;;;;;4997207;28;20488;-74
2023/03/29 02:10:35;;;;;;;1.60;1.30;;;6.90;98.20;;;;;;5006415;28;20460;-73
2023/03/29 02:13:02;;;;;;;1.50;1.20;;;6.90;98.20;;;;;;4973672;28;21418;-74
2023/03/29 02:15:29;;;;;;;1.57;1.43;;;6.90;98.20;;;;;;5009681;28;20463;-75
2023/03/29 02:17:57;;;;;;;1.50;1.30;;;6.90;98.20;;;;;;4974354;28;20480;-74
2023/03/29 02:20:30;;;;;;;1.57;1.30;;;7.00;98.20;;;;;;5005446;28;20471;-74
2023/03/29 02:23:04;;;;;;;1.57;1.30;;;7.00;98.20;;;;;;4975737;28;20507;-74
2023/03/29 02:25:31;;;;;;;1.57;1.30;;;7.00;98.20;;;;;;5006102;28;21072;-74
2023/03/29 02:27:59;;;;;;;1.57;1.37;;;7.00;98.20;;;;;;4996040;28;21025;-74
2023/03/29 02:30:30;;;;;;;1.57;1.40;;;7.10;98.20;;;;;;5006061;28;20823;-74
2023/03/29 02:33:04;;;;;;;1.60;1.30;;;7.10;98.20;;;;;;4976999;28;20483;-74
2023/03/29 02:35:35;;;;;;;1.50;1.20;;;7.00;98.20;;;;;;5007392;28;20543;-74
2023/03/29 02:38:04;;;;;;;1.53;1.20;;;7.10;98.20;;;;;;5002437;28;20534;-74
2023/03/29 02:40:34;;;;;;;1.60;1.33;;;7.10;98.20;;;;;;5011979;28;20464;-74
2023/03/29 02:43:02;;;;;;;1.50;1.20;;;7.10;98.20;;;;;;4978312;28;20489;-74
2023/03/29 02:45:30;;;;;;;1.53;1.30;;;7.10;98.20;;;;;;5012514;28;20468;-74
2023/03/29 02:48:03;;;;;;;1.50;1.20;;;7.10;98.20;;;;;;4982072;28;20485;-74
2023/03/29 02:50:36;;;;;;;1.50;1.20;;;7.10;98.20;;;;;;5009411;28;20460;-74
2023/03/29 02:53:09;;;;;;;1.50;1.27;;;7.10;98.20;;;;;;4977885;28;20480;-74
2023/03/29 02:55:37;;;;;;;1.50;1.20;;;7.10;98.20;;;;;;5012385;28;21065;-74
2023/03/29 02:58:07;;;;;;;1.60;1.40;;;7.10;98.20;;;;;;4985001;28;21168;-75
2023/03/29 03:00:37;;;;;;;1.50;1.20;;;7.20;98.20;;;;;;5010480;28;20460;-73
2023/03/29 03:03:07;;;;;;;1.50;1.20;;;7.20;98.20;;;;;;4978753;28;20877;-74
2023/03/29 03:05:34;;;;;;;1.50;1.20;;;7.20;98.20;;;;;;5012472;28;20963;-74
2023/03/29 03:08:03;;;;;;;1.50;1.20;;;7.20;98.20;;;;;;4998145;28;20517;-74
2023/03/29 03:10:32;;;;;;;1.60;1.30;;;7.20;98.20;;;;;;5011108;28;20943;-74
2023/03/29 03:12:59;;;;;;;1.60;1.30;;;7.20;98.20;;;;;;4979633;28;21813;-75
2023/03/29 03:15:26;;;;;;;1.50;1.30;;;7.20;98.20;;;;;;5013225;28;20491;-74
2023/03/29 03:17:53;;;;;;;1.50;1.20;;;7.20;98.20;;;;;;4981602;28;20522;-75
2023/03/29 03:20:21;;;;;;;1.60;1.40;;;7.20;98.20;;;;;;5010972;28;20499;-74
2023/03/29 03:22:49;;;;;;;1.57;1.30;;;7.30;98.20;;;;;;4979777;28;21002;-76
2023/03/29 03:25:21;;;;;;;1.60;1.30;;;7.20;98.20;;;;;;5008346;28;20464;-75
2023/03/29 03:27:50;;;;;;;1.60;1.40;;;7.20;98.20;;;;;;4998210;28;20487;-77
2023/03/29 03:30:17;;;;;;;1.50;1.20;;;7.20;98.20;;;;;;5012406;28;20932;-76
2023/03/29 03:32:44;;;;;;;1.60;1.30;;;7.30;98.20;;;;;;4978159;28;20496;-74
2023/03/29 03:35:12;;;;;;;1.60;1.40;;;7.30;98.20;;;;;;5012683;28;21118;-77
2023/03/29 03:37:40;;;;;;;1.53;1.20;;;7.30;98.20;;;;;;4982554;28;20492;-75
2023/03/29 03:40:10;;;;;;;1.57;1.23;;;7.40;98.20;;;;;;5006138;28;20539;-74
2023/03/29 03:42:37;;;;;;;1.70;1.60;;;7.40;98.20;;;;;;5000193;28;21012;-77
2023/03/29 03:45:05;;;;;;;1.60;1.40;;;7.40;98.20;;;;;;5006558;28;20492;-76
2023/03/29 03:47:32;;;;;;;1.57;1.30;;;7.50;98.20;;;;;;5001326;28;20488;-75
2023/03/29 03:49:59;;;;;;;1.50;1.10;;;7.50;98.20;;;;;;5012636;28;20583;-75
2023/03/29 03:52:26;;;;;;;1.57;1.23;;;7.50;98.20;;;;;;4981644;28;20557;-74
2023/03/29 03:54:54;;;;;;;1.57;1.30;;;7.50;98.20;;;;;;5008660;28;20495;-74
2023/03/29 03:57:23;;;;;;;1.53;1.20;;;7.60;98.20;;;;;;4999135;28;20531;-75
2023/03/29 03:59:50;;;;;;;1.57;1.30;;;7.60;98.20;;;;;;5012181;28;20460;-74
2023/03/29 04:02:16;;;;;;;1.53;1.20;;;7.60;98.20;;;;;;4985044;28;20488;-74
2023/03/29 04:04:43;;;;;;;1.50;1.20;;;7.60;98.20;;;;;;4998807;28;20552;-74
2023/03/29 04:07:11;;;;;;;1.50;1.20;;;7.60;98.20;;;;;;4986379;28;20480;-74
2023/03/29 04:09:38;;;;;;;1.57;1.30;;;7.50;98.20;;;;;;4997974;28;20938;-74
2023/03/29 04:12:07;;;;;;;1.50;1.27;;;7.50;98.20;;;;;;4990181;28;20487;-74
2023/03/29 04:14:34;;;;;;;1.50;1.20;;;7.40;98.20;;;;;;5005785;28;20837;-73
2023/03/29 04:17:01;;;;;;;1.60;1.33;;;7.40;98.20;;;;;;4995150;28;20524;-73
2023/03/29 04:19:28;;;;;;;1.60;1.30;;;7.40;98.20;;;;;;5005153;28;20452;-75
2023/03/29 04:22:00;;;;;;;1.50;1.20;;;7.40;98.20;;;;;;4991789;28;20487;-76
2023/03/29 04:24:27;;;;;;;1.60;1.23;;;7.40;98.20;;;;;;5004994;28;20518;-74
2023/03/29 04:26:54;;;;;;;1.60;1.30;;;7.40;98.20;;;;;;4989232;28;20559;-76
2023/03/29 04:29:22;;;;;;;1.60;1.30;;;7.40;98.20;;;;;;4999046;28;20501;-76
2023/03/29 04:31:49;;;;;;;1.50;1.20;;;7.40;98.20;;;;;;4988305;28;20480;-75
2023/03/29 04:34:17;;;;;;;1.60;1.30;;;7.50;98.20;;;;;;5001897;28;20472;-74
2023/03/29 04:36:44;;;;;;;1.60;1.40;;;7.50;98.20;;;;;;4986202;28;21023;-74
2023/03/29 04:39:11;;;;;;;1.60;1.33;;;7.50;98.20;;;;;;5004228;28;20457;-74
2023/03/29 04:41:38;;;;;;;1.57;1.30;;;7.50;98.20;;;;;;4990412;28;20480;-74
2023/03/29 04:44:05;;;;;;;1.70;1.57;;;7.50;98.20;;;;;;5002358;28;20473;-75
2023/03/29 04:46:33;;;;;;;1.50;1.20;;;7.40;98.20;;;;;;4994006;28;20559;-75
2023/03/29 04:49:00;;;;;;;1.53;1.20;;;7.40;98.20;;;;;;5005469;28;20484;-73
2023/03/29 04:51:27;;;;;;;1.50;1.30;;;7.40;98.20;;;;;;4991603;28;20488;-75
2023/03/29 04:53:54;;;;;;;1.53;1.20;;;7.40;98.20;;;;;;5007442;28;20532;-75
2023/03/29 04:56:21;;;;;;;1.60;1.30;;;7.40;98.20;;;;;;4990403;28;20548;-76
2023/03/29 04:58:49;;;;;;;1.50;1.20;;;7.40;98.20;;;;;;4996057;28;20457;-74
2023/03/29 05:01:17;;;;;;;1.57;1.30;;;7.40;98.20;;;;;;4987217;28;20501;-75
2023/03/29 05:03:45;;;;;;;1.50;1.30;;;7.40;98.20;;;;;;5005472;28;20508;-75
2023/03/29 05:06:12;;;;;;;1.50;1.30;;;7.40;98.20;;;;;;4987202;28;20488;-75
2023/03/29 05:08:40;;;;;;;1.50;1.20;;;7.40;98.20;;;;;;5002730;28;20566;-74
2023/03/29 05:11:07;;;;;;;1.50;1.20;;;7.40;98.20;;;;;;4985612;28;20469;-74
2023/03/29 05:13:34;;;;;;;1.50;1.27;;;7.40;98.20;;;;;;5006598;28;20471;-75
2023/03/29 05:16:02;;;;;;;1.60;1.30;;;7.40;98.20;;;;;;4984561;28;20492;-75
2023/03/29 05:18:29;;;;;;;1.53;1.20;;;7.40;98.20;;;;;;5005432;28;20910;-74
2023/03/29 05:20:58;;;;;;;1.50;1.10;;;7.40;98.20;;;;;;4983717;28;20475;-75
2023/03/29 05:23:31;;;;;;;1.60;1.30;;;7.40;98.20;;;;;;5008036;28;20472;-75
2023/03/29 05:25:58;;;;;;;1.60;1.30;;;7.50;98.20;;;;;;4992621;28;20484;-75
2023/03/29 05:28:25;;;;;;;1.50;1.17;;;7.50;98.20;;;;;;4993879;28;20464;-75
2023/03/29 05:30:59;;;;;;;1.57;1.40;;;7.50;98.20;;;;;;4985792;28;20555;-75
2023/03/29 05:33:27;;;;;;;1.50;1.23;;;7.50;98.20;;;;;;5010400;28;20459;-76
2023/03/29 05:36:01;;;;;;;1.53;1.20;;;7.50;98.20;;;;;;4992224;28;20488;-75
2023/03/29 05:38:29;;;;;;;1.57;1.30;;;7.60;98.20;;;;;;4980639;28;20472;-75
2023/03/29 05:40:56;;;;;;;1.50;1.20;;;7.60;98.20;;;;;;4974912;28;20460;-73
2023/03/29 05:43:23;;;;;;;1.50;1.20;;;7.60;98.20;;;;;;5006894;28;20835;-75
2023/03/29 05:45:52;;;;;;;1.57;1.10;;;7.70;98.20;;;;;;4996852;28;20521;-75
2023/03/29 05:48:18;;;;;;;1.50;1.23;;;7.70;98.20;;;;;;5012427;28;20813;-75
2023/03/29 05:50:47;;;;;;;1.57;1.20;;;7.70;98.20;;;;;;5013312;28;20489;-77
2023/03/29 05:53:15;;;;;;;1.50;1.20;;;7.70;98.20;;;;;;4981225;28;20595;-76
2023/03/29 05:55:43;;;;;;;1.57;1.30;;;7.70;98.20;;;;;;5004666;28;20939;-76
2023/03/29 05:58:11;;;;;;;1.53;1.20;;;7.70;98.20;;;;;;4996986;28;21022;-76
2023/03/29 06:00:38;;;;;;;2.53;2.33;;;7.70;98.20;;;;;;5002332;28;20517;-76
2023/03/29 06:03:06;;;;;;;1.53;1.20;;;7.70;98.20;;;;;;4979411;28;20504;-76
2023/03/29 06:05:34;;;;;;;1.50;1.20;;;7.70;98.20;;;;;;5009076;28;20481;-74
2023/03/29 06:08:01;;;;;;;1.50;1.40;;;7.80;98.20;;;;;;4991829;28;20480;-77
2023/03/29 06:10:29;;;;;;;1.60;1.40;;;7.80;98.20;;;;;;5008339;28;20489;-77
2023/03/29 06:12:56;;;;;;;1.57;1.20;;;7.80;98.20;;;;;;4988146;28;20484;-77
2023/03/29 06:15:23;;;;;;;1.60;1.40;;;7.90;98.20;;;;;;5010786;28;20471;-77
2023/03/29 06:17:50;;;;;;;1.60;1.30;;;7.90;98.20;;;;;;4992854;28;20515;-76
2023/03/29 06:20:45;;;;;;;1.60;1.30;;;8.00;98.20;;;;;;5007421;28;20456;-77
2023/03/29 06:23:12;;;;;;;1.50;1.20;;;8.00;98.20;;;;;;4993891;28;20954;-76
2023/03/29 06:25:40;;;;;;;1.53;1.20;;;8.00;98.20;;;;;;5003797;28;21109;-77
2023/03/29 06:28:07;;;;;;;1.50;1.10;;;8.10;98.20;;;;;;4994565;28;20903;-73
2023/03/29 06:30:34;;;;;;;1.53;1.20;;;8.10;98.20;;;;;;5004945;28;20491;-73
2023/03/29 06:33:00;;;;;;;1.53;1.30;;;8.10;98.20;;;;;;4986310;28;20778;-75
2023/03/29 06:35:27;;;;;;;1.57;1.20;;;8.20;98.20;;;;;;5008394;28;20760;-75
2023/03/29 06:37:54;;;;;;;1.53;1.20;;;8.20;98.20;;;;;;4997801;28;20491;-77
2023/03/29 06:40:21;;;;;;;1.57;1.20;;;8.20;98.20;;;;;;5009829;28;20494;-74
2023/03/29 06:42:56;;;;;;;1.60;1.30;;;8.20;98.20;;;;;;4984504;28;20476;-73
2023/03/29 06:45:23;;;;;;;1.50;1.20;;;8.30;98.20;;;;;;5005893;28;20556;-74
2023/03/29 06:47:50;;;;;;;1.60;1.50;;;8.30;98.20;;;;;;4991523;28;20476;-73
2023/03/29 06:50:17;;;;;;;1.57;1.30;;;8.40;98.20;;;;;;5006879;28;20983;-74
2023/03/29 06:52:45;;;;;;;1.50;1.17;;;8.40;98.20;;;;;;4988984;28;20484;-73
2023/03/29 06:55:12;;;;;;;2.07;1.87;;;8.40;98.20;;;;;;5007694;28;20459;-74
2023/03/29 06:57:40;;;;;;;1.57;1.30;;;8.40;98.20;;;;;;5008430;28;20471;-75
2023/03/29 07:00:16;;;;;;;1.50;1.10;;;8.50;98.20;;;;;;5003736;28;21187;-74
2023/03/29 07:02:44;;;;;;;1.57;1.20;;;8.50;98.20;;;;;;4986627;28;20487;-73
2023/03/29 07:05:12;;;;;;;1.50;1.20;;;8.60;98.20;;;;;;5006337;28;21026;-74
2023/03/29 07:07:52;;;;;;;2.20;2.00;;;8.60;98.20;;;;;;4987910;28;20496;-73
2023/03/29 07:10:21;;;;;;;1.57;1.20;;;8.60;98.20;;;;;;5005807;28;20565;-74
2023/03/29 07:12:49;;;;;;;1.60;1.50;;;8.70;98.20;;;;;;4997734;28;20487;-73
2023/03/29 07:15:18;;;;;;;1.50;1.10;;;8.70;98.20;;;;;;5000521;28;20464;-73
2023/03/29 07:17:47;;;;;;;1.50;1.10;;;8.80;98.20;;;;;;5005146;28;20506;-74
2023/03/29 07:20:15;;;;;;;1.50;1.10;;;8.80;98.20;;;;;;5000947;28;20460;-74
2023/03/29 07:22:44;;;;;;;1.50;1.10;;;8.80;98.20;;;;;;5007852;28;20475;-73
2023/03/29 07:25:21;;;;;;;1.50;1.10;;;8.90;98.20;;;;;;5007872;28;20488;-73
2023/03/29 07:27:48;;;;;;;1.50;1.10;;;9.00;98.20;;;;;;5011189;28;20570;-74
2023/03/29 07:30:20;;;;;;;1.50;1.20;;;9.00;98.20;;;;;;5006374;28;20483;-74
2023/03/29 07:32:47;;;;;;;1.57;1.20;;;9.00;98.20;;;;;;4989411;28;20578;-74
2023/03/29 07:35:16;;;;;;;1.60;1.40;;;9.00;98.20;;;;;;5009675;28;20468;-74
2023/03/29 07:37:45;;;;;;;1.60;1.20;;;9.00;98.20;;;;;;4998136;28;20476;-73
2023/03/29 07:40:14;;;;;;;1.50;1.10;;;9.00;98.20;;;;;;5011309;28;20909;-73
2023/03/29 07:42:42;;;;;;;1.53;1.10;;;9.00;98.20;;;;;;4989314;28;20479;-73
2023/03/29 07:45:12;;;;;;;1.57;1.20;;;9.10;98.20;;;;;;5005825;28;21124;-73
2023/03/29 07:47:42;;;;;;;1.57;1.33;;;9.10;98.20;;;;;;4994681;28;20575;-73
2023/03/29 07:50:10;;;;;;;1.50;1.10;;;9.20;98.20;;;;;;5008742;28;20476;-74
2023/03/29 07:52:38;;;;;;;1.50;1.10;;;9.20;98.20;;;;;;4983684;28;20485;-74
2023/03/29 07:55:07;;;;;;;1.50;1.10;;;9.30;98.20;;;;;;5007163;28;20466;-74
2023/03/29 07:57:35;;;;;;;1.60;1.20;;;9.30;98.20;;;;;;5001642;28;20558;-74
2023/03/29 08:00:13;;;;;;;1.60;1.30;;;9.40;98.20;;;;;;5009050;28;20476;-73
2023/03/29 08:02:43;;;;;;;1.53;1.20;;;9.50;98.20;;;;;;4997986;28;20530;-75
2023/03/29 08:05:13;;;;;;;1.57;1.23;;;9.60;98.20;;;;;;5005003;28;20488;-75
2023/03/29 08:07:41;;;;;;;1.50;1.13;;;9.70;98.20;;;;;;4982410;28;20516;-75
2023/03/29 08:10:10;;;;;;;1.53;1.20;;;9.80;98.20;;;;;;4999859;28;20535;-74
2023/03/29 08:12:38;;;;;;;1.50;1.10;;;9.90;98.20;;;;;;4975558;28;20483;-75
2023/03/29 08:15:07;;;;;;;1.60;1.10;;;9.90;98.20;;;;;;5007911;28;20456;-74
2023/03/29 08:17:35;;;;;;;1.50;1.10;;;9.90;98.20;;;;;;4978298;28;20481;-76
2023/03/29 08:20:05;;;;;;;1.53;1.20;;;10.00;98.20;;;;;;5002325;28;20480;-75
2023/03/29 08:22:32;;;;;;;1.57;1.20;;;9.90;98.20;;;;;;4991962;28;20611;-73
2023/03/29 08:25:00;;;;;;;1.60;1.23;;;9.90;98.20;;;;;;5002465;28;20476;-76
2023/03/29 08:27:27;;;;;;;1.50;1.10;;;9.90;98.20;;;;;;4979638;28;20585;-75
2023/03/29 08:29:55;;;;;;;1.50;1.10;;;9.90;98.20;;;;;;4989163;28;20524;-76
2023/03/29 08:32:23;;;;;;;1.50;1.10;;;10.00;98.20;;;;;;4978405;28;20489;-77
2023/03/29 08:34:50;;;;;;;1.50;1.00;;;10.00;98.20;;;;;;4991976;28;20460;-77
2023/03/29 08:37:19;;;;;;;1.50;1.10;;;10.10;98.20;;;;;;4991582;28;21079;-76
2023/03/29 08:39:47;;;;;;;1.60;1.20;;;10.20;98.20;;;;;;4980316;28;20469;-76
2023/03/29 08:42:48;;;;;;;1.50;1.10;;;10.20;98.20;;;;;;4976997;28;20476;-76
2023/03/29 08:45:25;;;;;;;1.53;1.10;;;10.20;98.20;;;;;;4982036;28;20497;-75
2023/03/29 08:48:04;;;;;;;1.53;1.10;;;10.30;98.20;;;;;;4974288;28;20491;-75
2023/03/29 08:50:37;;;;;;;1.50;1.10;;;10.40;98.20;;;;;;4989701;28;20486;-75
2023/03/29 08:53:12;;;;;;;1.53;1.10;;;10.40;98.20;;;;;;4971661;28;20573;-74
2023/03/29 08:55:42;;;;;;;1.50;1.10;;;10.50;98.20;;;;;;4976017;28;20461;-75
2023/03/29 08:58:15;;;;;;;1.50;1.10;;;10.50;98.20;;;;;;4982130;28;20539;-74
2023/03/29 09:00:47;;;;;;;1.50;1.10;;;10.60;98.20;;;;;;4982531;28;20461;-74
2023/03/29 09:03:21;;;;;;;1.53;1.10;;;10.70;98.20;;;;;;4978532;28;20504;-74
2023/03/29 09:05:51;;;;;;;1.50;1.00;;;10.70;98.20;;;;;;4982529;28;20453;-76
2023/03/29 09:08:24;;;;;;;1.50;1.07;;;10.80;98.20;;;;;;4976787;28;20969;-75
2023/03/29 09:11:06;;;;;;;1.50;1.10;;;10.80;98.20;;;;;;4968323;28;20489;-76
2023/03/29 09:13:44;;;;;;;1.50;1.10;;;10.90;98.20;;;;;;4986247;28;20557;-75
2023/03/29 09:16:17;;;;;;;1.60;1.20;;;11.00;98.20;;;;;;4971780;28;20491;-74
2023/03/29 09:18:56;;;;;;;1.50;1.10;;;11.00;98.20;;;;;;4982001;28;21067;-75
2023/03/29 09:21:30;;;;;;;1.57;1.10;;;11.10;98.20;;;;;;4974879;28;20714;-76
2023/03/29 09:24:27;;;;;;;1.50;1.00;;;11.10;98.20;;;;;;4984930;28;20462;-74
2023/03/29 09:27:01;;;;;;;1.50;1.00;;;11.20;98.20;;;;;;4975332;28;20580;-75
2023/03/29 09:29:44;;;;;;;1.50;1.10;;;11.30;98.20;;;;;;4986259;28;20471;-76
2023/03/29 09:32:20;;;;;;;1.53;1.10;;;11.40;98.20;;;;;;4973720;28;20514;-73
2023/03/29 09:34:54;;;;;;;1.70;1.53;;;11.50;98.20;;;;;;4979918;28;20469;-73
2023/03/29 09:37:29;;;;;;;1.50;1.10;;;11.60;98.20;;;;;;4985464;28;20487;-73
2023/03/29 09:40:00;;;;;;;1.50;1.10;;;11.60;98.20;;;;;;5001543;28;20533;-73
2023/03/29 09:42:30;;;;;;;1.50;1.10;;;11.70;98.20;;;;;;4990467;28;20593;-76
2023/03/29 09:45:07;;;;;;;1.53;1.10;;;11.70;98.20;;;;;;5006898;28;20564;-75
2023/03/29 09:47:37;;;;;;;1.50;1.00;;;11.70;98.20;;;;;;4994371;28;20488;-74
2023/03/29 09:50:10;;;;;;;1.50;1.00;;;11.80;98.20;;;;;;5005582;28;20830;-73
2023/03/29 09:52:37;;;;;;;1.50;1.10;;;12.00;98.20;;;;;;4993643;28;21038;-74
2023/03/29 09:55:08;;;;;;;1.50;1.10;;;12.10;98.20;;;;;;5005519;28;21122;-74
2023/03/29 09:57:35;;;;;;;1.50;1.10;;;12.10;98.20;;;;;;4979206;28;21122;-74
2023/03/29 10:00:05;;;;;;;1.50;1.10;;;12.20;98.20;;;;;;5005708;28;20630;-73
2023/03/29 10:02:32;;;;;;;1.50;1.00;;;12.30;98.20;;;;;;4993754;28;20585;-76
2023/03/29 10:05:06;;;;;;;1.50;1.00;;;12.40;98.20;;;;;;5009052;28;20468;-76
2023/03/29 10:07:43;;;;;;;1.50;1.00;;;12.50;98.20;;;;;;4998426;28;20503;-76
2023/03/29 10:10:21;;;;;;;1.50;1.00;;;12.60;98.20;;;;;;5004753;28;20464;-76
2023/03/29 10:12:51;;;;;;;1.50;0.90;;;12.60;98.20;;;;;;4987524;28;20479;-74
2023/03/29 10:15:20;;;;;;;1.50;1.00;;;12.70;98.20;;;;;;5003989;28;20464;-75
2023/03/29 10:17:48;;;;;;;17.43;7.87;;;12.70;98.20;;;;;;4989409;28;20566;-76
2023/03/29 10:20:19;;;;;;;1.50;1.00;;;12.80;98.20;;;;;;5004651;28;20555;-75
2023/03/29 10:22:59;;;;;;;1.50;1.00;;;12.90;98.20;;;;;;4987708;28;20488;-74
2023/03/29 10:25:32;;;;;;;1.50;1.00;;;12.90;98.20;;;;;;5004300;28;20551;-74
2023/03/29 10:28:06;;;;;;;1.60;1.10;;;12.90;98.20;;;;;;4999196;28;20492;-75
2023/03/29 10:30:37;;;;;;;1.50;1.00;;;13.00;98.20;;;;;;5004819;28;20486;-75
2023/03/29 10:33:16;;;;;;;1.50;1.00;;;13.00;98.20;;;;;;4990010;28;20485;-75
2023/03/29 10:35:44;;;;;;;1.50;1.00;;;13.00;98.20;;;;;;5007614;28;20539;-75
2023/03/29 10:38:14;;;;;;;1.50;1.00;;;13.00;98.20;;;;;;4970037;28;20483;-74
2023/03/29 10:40:49;;;;;;;1.50;1.00;;;13.10;98.20;;;;;;5004016;28;21144;-75
2023/03/29 10:43:23;;;;;;;1.50;1.00;;;13.20;98.20;;;;;;4982166;28;20476;-75
2023/03/29 10:45:52;;;;;;;1.50;1.10;;;13.30;98.20;;;;;;4986873;28;20478;-74
2023/03/29 10:48:25;;;;;;;1.50;1.00;;;13.30;98.20;;;;;;4994769;28;20956;-73
2023/03/29 10:50:52;;;;;;;1.50;1.00;;;13.50;98.20;;;;;;4971080;28;21228;-73
2023/03/29 10:53:26;;;;;;;1.50;1.00;;;13.70;98.20;;;;;;4982521;28;20461;-74
2023/03/29 10:56:07;;;;;;;1.50;1.00;;;13.80;98.20;;;;;;4966100;28;20520;-74
2023/03/29 10:58:48;;;;;;;1.50;1.00;;;14.00;98.20;;;;;;5010339;28;20472;-74
2023/03/29 11:01:23;;;;;;;1.50;0.90;;;14.30;98.20;;;;;;5000801;28;21057;-73
2023/03/29 11:04:14;;;;;;;1.50;1.00;;;14.60;98.10;;;;;;5014740;28;20470;-73
2023/03/29 11:06:47;;;;;;;1.50;1.00;;;14.70;97.30;;;;;;5003921;28;20889;-73
2023/03/29 11:09:23;;;;;;;1.50;0.93;;;14.60;97.90;;;;;;5009446;28;20875;-77
2023/03/29 11:12:02;;;;;;;1.50;1.00;;;14.50;98.20;;;;;;4996974;28;20860;-74
2023/03/29 11:14:41;;;;;;;3.40;3.10;;;14.50;98.20;;;;;;5012317;28;20963;-74
2023/03/29 11:17:23;;;;;;;1.50;0.90;;;14.40;98.20;;;;;;4997226;28;20479;-74
2023/03/29 11:20:11;;;;;;;1.50;1.00;;;14.40;98.20;;;;;;5011493;28;20463;-74
2023/03/29 11:22:47;;;;;;;1.50;1.00;;;14.40;98.20;;;;;;4995278;28;20921;-73
2023/03/29 11:25:29;;;;;;;1.50;1.10;;;14.50;98.20;;;;;;5011223;28;20463;-74
2023/03/29 11:28:03;;;;;;;1.50;0.90;;;14.50;98.20;;;;;;4986200;28;20512;-73
2023/03/29 11:30:39;;;;;;;1.50;1.00;;;14.60;98.20;;;;;;5015108;28;20454;-74
2023/03/29 11:33:19;;;;;;;1.50;1.00;;;14.90;98.20;;;;;;5002712;28;20474;-74
2023/03/29 11:35:55;;;;;;;1.53;1.10;;;15.10;98.20;;;;;;5016720;28;20463;-73
2023/03/29 11:38:28;;;;;;;1.50;1.00;;;15.40;98.00;;;;;;4978570;28;20502;-75
2023/03/29 11:41:02;;;;;;;1.50;0.90;;;15.50;97.50;;;;;;5002840;28;20476;-72
2023/03/29 11:43:35;;;;;;;1.50;1.00;;;15.70;97.00;;;;;;4996792;28;20467;-74
2023/03/29 11:46:09;;;;;;;1.50;0.93;;;15.60;96.30;;;;;;5002722;28;20496;-74
2023/03/29 11:48:42;;;;;;;1.50;1.00;;;15.50;96.70;;;;;;5010669;28;20494;-74
2023/03/29 11:51:14;;;;;;;1.50;0.90;;;15.50;97.30;;;;;;4996242;28;21162;-75
2023/03/29 11:53:51;;;;;;;1.50;0.97;;;15.60;98.10;;;;;;5004876;28;20983;-74
2023/03/29 11:56:28;;;;;;;1.50;1.00;;;15.80;97.50;;;;;;4993845;28;20533;-73
2023/03/29 11:59:03;;;;;;;1.50;0.90;;;16.00;97.20;;;;;;5014167;28;20974;-74
2023/03/29 12:01:34;;;;;;;1.50;1.00;;;16.10;96.40;;;;;;4991590;28;20487;-74
2023/03/29 12:04:07;;;;;;;1.50;0.93;;;16.20;97.10;;;;;;5009288;28;20453;-73
2023/03/29 12:06:41;;;;;;;1.50;0.90;;;16.40;96.60;;;;;;5000623;28;20511;-74
2023/03/29 12:09:20;;;;;;;1.50;0.90;;;16.50;96.70;;;;;;5010808;28;20466;-73
2023/03/29 12:11:54;;;;;;;1.50;0.90;;;16.50;96.00;;;;;;4999713;28;20479;-74
2023/03/29 12:14:28;;;;;;;1.50;1.00;;;16.50;96.50;;;;;;5015515;28;20518;-74
2023/03/29 12:17:01;;;;;;;1.50;1.00;;;16.40;97.00;;;;;;4999374;28;20490;-73
2023/03/29 12:22:55;;;;;;;1.50;0.90;;;16.30;97.10;;;;;;4978568;23;20572;-74
2023/03/29 12:25:29;;;;;;;1.50;0.97;;;16.30;97.80;;;;;;4985657;28;20523;-74
2023/03/29 12:28:10;;;;;;;1.50;0.90;;;16.20;97.40;;;;;;4970024;28;20476;-74
2023/03/29 12:33:35;;;;;;;1.50;0.93;;;16.20;97.80;;;;;;5007988;23;20546;-74
2023/03/29 12:36:19;;;;;;;1.50;0.93;;;16.30;97.40;;;;;;4979585;28;20205;-74
2023/03/29 12:38:50;;;;;;;1.50;1.00;;;16.40;97.40;;;;;;5000562;28;20456;-75
2023/03/29 12:41:23;;;;;;;1.50;0.90;;;16.40;96.80;;;;;;5000279;28;20492;-76
2023/03/29 12:43:51;;;;;;;1.50;1.00;;;16.40;97.40;;;;;;4999691;28;20559;-73
2023/03/29 12:46:21;;;;;;;1.50;1.00;;;16.50;96.30;;;;;;5001258;28;20476;-73
2023/03/29 12:48:55;;;;;;;1.57;1.00;;;16.60;96.80;;;;;;5013345;28;20552;-75
2023/03/29 12:51:30;;;;;;;1.50;1.10;;;16.70;96.50;;;;;;4989792;28;20588;-74
2023/03/29 12:54:07;;;;;;;1.50;1.00;;;16.90;96.10;;;;;;5001941;28;20465;-74
2023/03/29 12:56:42;;;;;;;1.50;1.00;;;17.00;96.10;;;;;;4992033;28;21012;-75
2023/03/29 12:59:26;;;;;;;1.50;0.90;;;17.20;95.50;;;;;;5007057;28;20590;-73
2023/03/29 13:02:24;;;;;;;1.50;0.90;;;17.30;94.70;;;;;;4981761;28;20488;-73
2023/03/29 13:04:56;;;;;;;1.50;1.00;;;17.40;95.00;;;;;;5000137;28;20484;-73
2023/03/29 13:07:33;;;;;;;1.50;0.90;;;17.60;94.70;;;;;;4995664;28;20490;-75
2023/03/29 13:10:02;;;;;;;1.50;0.90;;;17.80;94.90;;;;;;5003843;28;20543;-74
2023/03/29 13:12:36;;;;;;;1.50;0.90;;;18.10;93.50;;;;;;4969712;28;20481;-74
2023/03/29 13:15:07;;;;;;;1.50;0.90;;;18.30;92.80;;;;;;5010093;28;20480;-75
2023/03/29 13:17:47;;;;;;;1.50;0.90;;;18.50;92.00;;;;;;4988040;28;20937;-74
2023/03/29 13:20:32;;;;;;;1.50;0.90;;;18.50;91.00;;;;;;5008413;28;20856;-76